Time;durP1;ratioP1;P1;durP2;ratioP2;P2;SDS_P1;SDS_P2;PMS_P1;PMS_P2;Temp;Humidity;BMP_temperature;BMP_pressure;BME280_temperature;BME280_humidity;BME280_pressure;Samples;Min_cycle;Max_cycle;Signal;HPM_P1;HPM_P2
2023/09/19 00:00:58;;;;;;;;;;;;;;;29.78;79.90;100959.13;5017712;28;70438;-37
2023/09/19 00:03:31;;;;;;;;;;;;;;;29.82;79.87;100954.13;5017864;28;66323;-37
2023/09/19 00:06:01;;;;;;;;;;;;;;;29.87;79.02;100950.81;5017983;28;69438;-38
2023/09/19 00:08:30;;;;;;;;;;;;;;;29.91;79.32;100946.63;5021284;28;66043;-38
2023/09/19 00:11:05;;;;;;;;;;;;;;;29.96;79.48;100952.22;5020109;28;70140;-38
2023/09/19 00:13:36;;;;;;;;;;;;;;;29.99;80.10;100955.31;5018179;28;65626;-38
2023/09/19 00:16:10;;;;;;;;;;;;;;;30.01;79.87;100974.06;5015060;28;69594;-38
2023/09/19 00:18:40;;;;;;;;;;;;;;;30.07;80.07;100973.19;5016240;28;66581;-38
2023/09/19 00:21:10;;;;;;;;;;;;;;;30.09;80.39;100976.53;5015721;28;69684;-37
2023/09/19 00:23:42;;;;;;;;;;;;;;;30.12;79.98;100976.09;5014765;28;66403;-39
2023/09/19 00:26:12;;;;;;;;;;;;;;;30.15;80.02;100981.09;5029464;28;70448;-39
2023/09/19 00:28:46;;;;;;;;;;;;;;;30.20;80.20;100988.53;5011271;28;65745;-38
2023/09/19 00:31:15;;;;;;;;;;;;;;;30.20;81.19;100984.00;5025243;28;69811;-38
2023/09/19 00:33:45;;;;;;;;;;;;;;;30.17;81.75;100984.41;5013931;28;66472;-38
2023/09/19 00:36:15;;;;;;;;;;;;;;;30.13;81.62;100985.88;5003424;28;70135;-37
2023/09/19 00:38:46;;;;;;;;;;;;;;;30.09;81.77;100995.47;5016650;28;66898;-38
2023/09/19 00:41:15;;;;;;;;;;;;;;;30.11;80.19;100992.53;5015593;28;71800;-38
2023/09/19 00:43:45;;;;;;;;;;;;;;;30.12;80.33;100995.03;5016923;28;67059;-36
2023/09/19 00:46:16;;;;;;;;;;;;;;;30.16;77.43;101001.69;5018137;28;70769;-35
2023/09/19 00:48:47;;;;;;;;;;;;;;;30.20;76.77;101004.78;5023187;28;66444;-37
2023/09/19 00:51:20;;;;;;;;;;;;;;;30.23;75.82;101020.66;5006121;28;70655;-37
2023/09/19 00:53:50;;;;;;;;;;;;;;;30.25;74.91;101019.38;5005477;28;66891;-36
2023/09/19 00:56:19;;;;;;;;;;;;;;;30.27;74.28;101013.75;5009616;28;69898;-38
2023/09/19 00:58:50;;;;;;;;;;;;;;;30.31;73.49;101019.56;5012906;28;66685;-37
2023/09/19 01:01:20;;;;;;;;;;;;;;;30.32;73.46;101024.78;5003762;28;70529;-38
2023/09/19 01:03:49;;;;;;;;;;;;;;;30.35;73.58;101018.09;5023014;28;65254;-37
2023/09/19 01:06:19;;;;;;;;;;;;;;;30.37;73.37;101016.00;5026806;28;70547;-37
2023/09/19 01:08:49;;;;;;;;;;;;;;;30.38;73.08;101020.38;5023552;28;66632;-36
2023/09/19 01:11:24;;;;;;;;;;;;;;;30.41;72.70;101033.47;5003015;28;70042;-37
2023/09/19 01:14:12;;;;;;;;;;;;;;;30.42;72.54;101029.72;5015962;28;66175;-37
2023/09/19 01:16:45;;;;;;;;;;;;;;;30.42;72.10;101032.44;5027948;28;69453;-37
2023/09/19 01:19:37;;;;;;;;;;;;;;;30.46;72.05;101039.09;5026816;28;66316;-37
2023/09/19 01:22:08;;;;;;;;;;;;;;;30.49;71.67;101030.53;5000588;28;70475;-37
2023/09/19 01:24:47;;;;;;;;;;;;;;;30.49;71.63;101025.94;5021074;28;66114;-36
2023/09/19 01:27:22;;;;;;;;;;;;;;;30.51;71.87;101023.03;5019423;28;69417;-36
2023/09/19 01:29:53;;;;;;;;;;;;;;;30.53;71.70;101026.34;5021433;28;66378;-37
2023/09/19 01:32:24;;;;;;;;;;;;;;;30.55;71.42;101029.69;5012620;28;69992;-37
2023/09/19 01:35:03;;;;;;;;;;;;;;;30.56;71.35;101035.91;5022693;28;65668;-36
2023/09/19 01:37:33;;;;;;;;;;;;;;;30.58;71.09;101040.06;5020997;28;70536;-36
2023/09/19 01:40:20;;;;;;;;;;;;;;;30.60;71.02;101031.75;4991645;28;66428;-36
2023/09/19 01:43:22;;;;;;;;;;;;;;;30.61;70.68;101039.66;5033349;28;69996;-38
2023/09/19 01:46:10;;;;;;;;;;;;;;;30.65;70.61;101037.34;4986620;28;67115;-36
2023/09/19 01:48:58;;;;;;;;;;;;;;;30.66;70.91;101037.13;5003198;28;69777;-36
2023/09/19 01:51:48;;;;;;;;;;;;;;;30.68;70.75;101036.94;5022510;28;66385;-36
2023/09/19 01:54:25;;;;;;;;;;;;;;;30.71;70.53;101042.72;4999962;28;70341;-36
2023/09/19 01:57:03;;;;;;;;;;;;;;;30.72;70.48;101038.97;5009925;28;65389;-37
2023/09/19 01:59:36;;;;;;;;;;;;;;;30.75;70.29;101039.59;4997907;28;70672;-37
2023/09/19 02:02:06;;;;;;;;;;;;;;;30.77;70.55;101021.25;5003598;28;66024;-36
2023/09/19 02:04:36;;;;;;;;;;;;;;;30.78;70.58;101020.19;5022522;28;70559;-36
2023/09/19 02:07:07;;;;;;;;;;;;;;;30.80;70.28;101008.13;5019056;28;65988;-37
2023/09/19 02:09:38;;;;;;;;;;;;;;;30.82;70.41;101013.34;5021538;28;70785;-37
2023/09/19 02:12:11;;;;;;;;;;;;;;;30.84;70.52;101019.34;5019489;28;67154;-36
2023/09/19 02:14:40;;;;;;;;;;;;;;;30.85;70.36;101013.75;5019427;28;70596;-36
2023/09/19 02:17:12;;;;;;;;;;;;;;;30.86;70.18;101014.56;5021699;28;66073;-36
2023/09/19 02:19:44;;;;;;;;;;;;;;;30.88;70.11;101018.72;5006378;28;69220;-37
2023/09/19 02:22:16;;;;;;;;;;;;;;;30.91;70.26;101017.47;5021118;28;65982;-38
2023/09/19 02:24:47;;;;;;;;;;;;;;;30.94;70.05;101019.72;4986564;28;70181;-36
2023/09/19 02:27:17;;;;;;;;;;;;;;;30.96;69.94;101016.81;5011359;28;66653;-37
2023/09/19 02:29:49;;;;;;;;;;;;;;;30.98;69.84;101023.69;5028309;28;70369;-36
2023/09/19 02:32:19;;;;;;;;;;;;;;;31.00;70.01;101016.13;5005497;28;66882;-37
2023/09/19 02:34:51;;;;;;;;;;;;;;;31.02;69.58;101021.34;4994897;28;70520;-38
2023/09/19 02:37:21;;;;;;;;;;;;;;;31.05;69.58;101023.63;5021917;28;66466;-38
2023/09/19 02:39:51;;;;;;;;;;;;;;;31.05;69.79;101021.75;5015794;28;70424;-37
2023/09/19 02:42:21;;;;;;;;;;;;;;;31.06;69.82;101026.09;5018479;28;66515;-38
2023/09/19 02:44:50;;;;;;;;;;;;;;;31.08;69.28;101021.31;5020838;28;70511;-36
2023/09/19 02:47:20;;;;;;;;;;;;;;;31.10;69.56;101019.22;5003264;28;66885;-37
2023/09/19 02:49:50;;;;;;;;;;;;;;;31.12;69.43;101014.41;5019188;28;70718;-35
2023/09/19 02:52:19;;;;;;;;;;;;;;;31.13;69.24;101010.63;5003829;28;66565;-36
2023/09/19 02:54:50;;;;;;;;;;;;;;;31.16;69.07;101010.19;5007458;28;69767;-38
2023/09/19 02:57:19;;;;;;;;;;;;;;;31.17;69.40;101013.72;5028230;28;66677;-38
2023/09/19 02:59:49;;;;;;;;;;;;;;;31.21;69.35;101016.84;5017711;28;70643;-37
2023/09/19 03:02:19;;;;;;;;;;;;;;;30.94;69.15;100963.66;4997144;28;67103;-37
2023/09/19 03:04:49;;;;;;;;;;;;;;;31.25;69.18;101009.94;4991904;28;69939;-37
2023/09/19 03:07:19;;;;;;;;;;;;;;;31.27;69.16;101008.66;4993351;28;65635;-37
2023/09/19 03:09:48;;;;;;;;;;;;;;;31.29;69.22;100998.44;5011542;28;68748;-37
2023/09/19 03:12:18;;;;;;;;;;;;;;;31.31;69.13;100990.06;5020958;28;66221;-36
2023/09/19 03:14:48;;;;;;;;;;;;;;;31.35;69.26;100997.56;4999520;28;70254;-36
2023/09/19 03:17:19;;;;;;;;;;;;;;;31.36;68.91;100985.69;5010898;28;65932;-36
2023/09/19 03:19:50;;;;;;;;;;;;;;;31.38;68.96;100990.91;5016925;28;69461;-37
2023/09/19 03:22:21;;;;;;;;;;;;;;;31.39;69.02;100982.53;5018354;28;66667;-37
2023/09/19 03:24:50;;;;;;;;;;;;;;;31.40;68.72;100980.66;5019158;28;70321;-37
2023/09/19 03:27:20;;;;;;;;;;;;;;;31.41;68.83;100979.59;5014967;28;66645;-36
2023/09/19 03:29:50;;;;;;;;;;;;;;;31.42;68.57;100970.41;5023100;28;69713;-37
2023/09/19 03:32:20;;;;;;;;;;;;;;;31.45;68.67;100969.97;5001148;28;66825;-38
2023/09/19 03:34:50;;;;;;;;;;;;;;;31.47;68.59;100967.03;5013420;28;70345;-38
2023/09/19 03:37:20;;;;;;;;;;;;;;;31.47;68.56;100962.44;5015701;28;66882;-36
2023/09/19 03:39:52;;;;;;;;;;;;;;;31.50;68.57;100962.00;5002949;28;69878;-37
2023/09/19 03:42:25;;;;;;;;;;;;;;;31.50;68.71;100953.88;5027224;28;67090;-36
2023/09/19 03:44:55;;;;;;;;;;;;;;;31.54;68.41;100952.38;5020938;28;71198;-37
2023/09/19 03:47:24;;;;;;;;;;;;;;;31.55;68.39;100948.59;5004313;28;66338;-38
2023/09/19 03:49:56;;;;;;;;;;;;;;;31.57;68.26;100946.50;5004592;28;70131;-38
2023/09/19 03:52:26;;;;;;;;;;;;;;;31.59;68.55;100944.41;5025635;28;66669;-37
2023/09/19 03:54:59;;;;;;;;;;;;;;;31.61;68.47;100936.03;5015573;28;62461;-36
2023/09/19 03:57:30;;;;;;;;;;;;;;;31.63;68.40;100928.53;5008441;28;66635;-37
2023/09/19 03:59:59;;;;;;;;;;;;;;;31.65;68.26;100925.56;5015529;28;69272;-39
2023/09/19 04:02:40;;;;;;;;;;;;;;;31.66;68.20;100917.22;4999314;28;65385;-37
2023/09/19 04:05:11;;;;;;;;;;;;;;;31.68;68.14;100906.13;5016113;28;70877;-36
2023/09/19 04:07:41;;;;;;;;;;;;;;;31.69;68.00;100911.34;5006023;28;66265;-38
2023/09/19 04:10:14;;;;;;;;;;;;;;;31.72;68.10;100907.34;4990153;28;69610;-37
2023/09/19 04:12:53;;;;;;;;;;;;;;;31.73;67.78;100892.72;5007432;28;66571;-37
2023/09/19 04:15:24;;;;;;;;;;;;;;;31.75;67.90;100898.75;5010497;28;70128;-36
2023/09/19 04:17:55;;;;;;;;;;;;;;;31.77;67.92;100894.78;5014050;28;65474;-38
2023/09/19 04:20:25;;;;;;;;;;;;;;;31.79;67.97;100886.41;5006480;28;69818;-36
2023/09/19 04:22:55;;;;;;;;;;;;;;;31.79;67.91;100889.13;5024528;28;65581;-36
2023/09/19 04:25:27;;;;;;;;;;;;;;;31.80;67.90;100888.06;5015226;28;69700;-37
2023/09/19 04:27:58;;;;;;;;;;;;;;;31.83;67.96;100893.84;5019435;28;66223;-38
2023/09/19 04:30:28;;;;;;;;;;;;;;;31.85;67.96;100885.50;5011764;28;69659;-36
2023/09/19 04:32:57;;;;;;;;;;;;;;;31.86;67.94;100884.44;5021332;28;65226;-37
2023/09/19 04:35:31;;;;;;;;;;;;;;;31.87;67.98;100888.81;5022514;28;70488;-37
2023/09/19 04:38:03;;;;;;;;;;;;;;;31.90;67.80;100887.53;5022742;28;66755;-36
2023/09/19 04:40:33;;;;;;;;;;;;;;;31.93;67.62;100895.22;5007149;28;70020;-37
2023/09/19 04:43:03;;;;;;;;;;;;;;;31.95;67.57;100893.94;5021468;28;66747;-37
2023/09/19 04:45:33;;;;;;;;;;;;;;;31.96;67.39;100892.09;5025122;28;69613;-37
2023/09/19 04:48:02;;;;;;;;;;;;;;;31.98;67.49;100890.81;5004657;28;65153;-37
2023/09/19 04:50:34;;;;;;;;;;;;;;;32.01;67.40;100886.78;5004139;28;70628;-37
2023/09/19 04:53:04;;;;;;;;;;;;;;;32.01;67.40;100882.22;5016636;28;66044;-37
2023/09/19 04:55:34;;;;;;;;;;;;;;;32.04;67.29;100870.09;5005316;28;69851;-37
2023/09/19 04:58:03;;;;;;;;;;;;;;;32.05;67.30;100869.84;5022026;28;66405;-37
2023/09/19 05:00:35;;;;;;;;;;;;;;;32.08;67.27;100865.00;5021770;28;70290;-38
2023/09/19 05:03:06;;;;;;;;;;;;;;;32.10;67.15;100865.63;5023290;28;65222;-36
2023/09/19 05:05:38;;;;;;;;;;;;;;;32.11;67.46;100875.41;5024925;28;69231;-37
2023/09/19 05:08:09;;;;;;;;;;;;;;;32.12;67.40;100866.19;5023289;28;66840;-38
2023/09/19 05:10:38;;;;;;;;;;;;;;;32.15;67.58;100865.72;5001947;28;69850;-37
2023/09/19 05:13:08;;;;;;;;;;;;;;;32.16;67.40;100856.56;5018045;28;66932;-37
2023/09/19 05:15:39;;;;;;;;;;;;;;;32.17;67.24;100853.59;5019461;28;69964;-37
2023/09/19 05:18:08;;;;;;;;;;;;;;;32.19;67.40;100846.06;5026949;28;66576;-38
2023/09/19 05:20:39;;;;;;;;;;;;;;;32.23;66.76;100857.28;5017194;28;70062;-37
2023/09/19 05:23:12;;;;;;;;;;;;;;;32.25;66.92;100847.84;5022656;28;65539;-37
2023/09/19 05:25:43;;;;;;;;;;;;;;;32.29;66.80;100848.25;5019223;28;69215;-37
2023/09/19 05:28:14;;;;;;;;;;;;;;;32.32;66.84;100834.19;5021433;28;66246;-37
2023/09/19 05:30:44;;;;;;;;;;;;;;;32.34;66.83;100837.50;5015801;28;70055;-37
2023/09/19 05:33:18;;;;;;;;;;;;;;;32.35;66.58;100836.44;5036162;28;66551;-36
2023/09/19 05:35:51;;;;;;;;;;;;;;;32.38;66.35;100827.00;5029337;28;69325;-37
2023/09/19 05:38:20;;;;;;;;;;;;;;;32.39;66.81;100818.63;4999194;28;66666;-37
2023/09/19 05:40:50;;;;;;;;;;;;;;;32.41;66.63;100815.69;5014533;28;70471;-37
2023/09/19 05:43:19;;;;;;;;;;;;;;;32.43;66.53;100808.97;5025650;28;66661;-36
2023/09/19 05:45:51;;;;;;;;;;;;;;;32.44;66.57;100805.19;5024280;28;69252;-37
2023/09/19 05:48:22;;;;;;;;;;;;;;;32.48;66.52;100808.28;5024167;28;66416;-38
2023/09/19 05:50:51;;;;;;;;;;;;;;;32.51;66.30;100809.72;5021968;28;69992;-36
2023/09/19 05:53:21;;;;;;;;;;;;;;;32.52;66.79;100800.53;5034215;28;66785;-38
2023/09/19 05:55:53;;;;;;;;;;;;;;;32.54;66.45;100787.50;5020112;28;70473;-37
2023/09/19 05:58:22;;;;;;;;;;;;;;;32.55;66.34;100795.44;5020468;28;65711;-37
2023/09/19 06:00:52;;;;;;;;;;;;;;;32.39;66.34;100764.31;5021615;28;70645;-37
2023/09/19 06:03:21;;;;;;;;;;;;;;;32.58;66.30;100788.72;5011064;28;66412;-37
2023/09/19 06:05:52;;;;;;;;;;;;;;;32.60;65.96;100781.16;5021749;28;70084;-37
2023/09/19 06:08:22;;;;;;;;;;;;;;;32.62;66.40;100779.03;5015379;28;68090;-37
2023/09/19 06:10:52;;;;;;;;;;;;;;;32.63;65.95;100775.28;5008616;28;70257;-38
2023/09/19 06:13:21;;;;;;;;;;;;;;;32.65;65.92;100767.69;5010819;28;66820;-36
2023/09/19 06:15:51;;;;;;;;;;;;;;;32.66;65.73;100763.94;5016088;28;70791;-36
2023/09/19 06:18:21;;;;;;;;;;;;;;;32.68;66.25;100756.34;5011047;28;66961;-37
2023/09/19 06:20:50;;;;;;;;;;;;;;;32.71;65.86;100739.59;5015929;28;70375;-36
2023/09/19 06:23:22;;;;;;;;;;;;;;;32.74;65.96;100728.28;4999728;28;66651;-38
2023/09/19 06:25:53;;;;;;;;;;;;;;;32.75;65.66;100729.09;5015760;28;69534;-38
2023/09/19 06:28:24;;;;;;;;;;;;;;;32.80;65.83;100721.06;5023162;28;66756;-36
2023/09/19 06:30:54;;;;;;;;;;;;;;;32.82;65.94;100714.34;5019416;28;71313;-36
2023/09/19 06:33:24;;;;;;;;;;;;;;;32.85;65.97;100704.88;5021969;28;66258;-38
2023/09/19 06:35:59;;;;;;;;;;;;;;;32.87;65.78;100705.44;5015156;28;70139;-36
2023/09/19 06:38:28;;;;;;;;;;;;;;;32.89;65.67;100697.91;5003413;28;66280;-38
2023/09/19 06:40:58;;;;;;;;;;;;;;;32.92;65.70;100684.66;5007100;28;70065;-38
2023/09/19 06:43:30;;;;;;;;;;;;;;;32.96;65.43;100681.44;5011027;28;66054;-37
2023/09/19 06:46:00;;;;;;;;;;;;;;;33.00;65.59;100671.81;5012434;28;70222;-36
2023/09/19 06:48:30;;;;;;;;;;;;;;;33.05;65.49;100663.75;5019188;28;66840;-37
2023/09/19 06:51:05;;;;;;;;;;;;;;;33.04;65.58;100651.22;5008854;28;69380;-38
2023/09/19 06:53:35;;;;;;;;;;;;;;;33.06;65.51;100651.81;5017335;28;66677;-36
2023/09/19 06:56:06;;;;;;;;;;;;;;;33.09;65.29;100640.47;5019622;28;69417;-37
2023/09/19 06:58:36;;;;;;;;;;;;;;;33.11;65.25;100638.34;5015349;28;66307;-40
2023/09/19 07:01:06;;;;;;;;;;;;;;;33.17;65.01;100634.63;5011330;28;70110;-36
2023/09/19 07:03:36;;;;;;;;;;;;;;;33.19;65.47;100634.41;5021726;28;66258;-36
2023/09/19 07:06:08;;;;;;;;;;;;;;;33.21;65.24;100640.41;5026738;28;70161;-37
2023/09/19 07:08:38;;;;;;;;;;;;;;;33.23;65.16;100630.94;5013536;28;66297;-37
2023/09/19 07:11:08;;;;;;;;;;;;;;;33.24;65.23;100629.91;5014902;28;70640;-37
2023/09/19 07:13:38;;;;;;;;;;;;;;;33.28;65.25;100620.19;5013952;28;66582;-37
2023/09/19 07:16:10;;;;;;;;;;;;;;;33.30;64.60;100615.34;5011872;28;70179;-36
2023/09/19 07:18:40;;;;;;;;;;;;;;;33.34;64.46;100608.31;5016296;28;65779;-37
2023/09/19 07:21:15;;;;;;;;;;;;;;;33.37;64.73;100599.69;5019698;28;69871;-37
2023/09/19 07:23:46;;;;;;;;;;;;;;;33.43;64.44;100595.16;5015408;28;66676;-37
2023/09/19 07:26:17;;;;;;;;;;;;;;;33.49;64.65;100587.91;5018397;28;71865;-36
2023/09/19 07:28:46;;;;;;;;;;;;;;;33.54;64.07;100590.75;5022343;28;66092;-37
2023/09/19 07:31:17;;;;;;;;;;;;;;;33.58;63.91;100575.63;5021498;28;70375;-36
2023/09/19 07:33:46;;;;;;;;;;;;;;;33.63;64.17;100570.25;5015250;28;66624;-38
2023/09/19 07:36:16;;;;;;;;;;;;;;;33.67;63.87;100562.44;5017258;28;69884;-38
2023/09/19 07:38:45;;;;;;;;;;;;;;;33.71;64.08;100552.69;5000600;28;66753;-37
2023/09/19 07:41:15;;;;;;;;;;;;;;;33.72;63.78;100554.34;4994660;28;70415;-37
2023/09/19 07:43:45;;;;;;;;;;;;;;;33.75;64.07;100546.50;5016686;28;66951;-38
2023/09/19 07:46:14;;;;;;;;;;;;;;;33.79;64.00;100544.97;4997048;28;70315;-38
2023/09/19 07:48:48;;;;;;;;;;;;;;;33.85;63.70;100542.28;5018055;28;65786;-37
2023/09/19 07:51:18;;;;;;;;;;;;;;;33.89;63.88;100551.63;5010872;28;70655;-40
2023/09/19 07:53:48;;;;;;;;;;;;;;;33.92;63.64;100559.28;5014706;28;66828;-37
2023/09/19 07:56:20;;;;;;;;;;;;;;;33.98;63.53;100556.38;5010607;28;70579;-36
2023/09/19 07:58:50;;;;;;;;;;;;;;;34.02;62.84;100549.38;5016631;28;66435;-36
2023/09/19 08:01:19;;;;;;;;;;;;;;;34.06;62.58;100538.84;5015412;28;70438;-39
2023/09/19 08:03:49;;;;;;;;;;;;;;;34.12;62.47;100543.28;5026146;28;65977;-36
2023/09/19 08:06:20;;;;;;;;;;;;;;;34.17;62.84;100540.63;5023891;28;70860;-36
2023/09/19 08:08:56;;;;;;;;;;;;;;;34.21;62.31;100536.34;5023167;28;66756;-38
2023/09/19 08:11:30;;;;;;;;;;;;;;;34.25;62.04;100551.09;4988645;28;68987;-37
2023/09/19 08:14:00;;;;;;;;;;;;;;;34.28;62.03;100551.66;5016164;28;67201;-38
2023/09/19 08:16:31;;;;;;;;;;;;;;;34.32;62.07;100558.25;5028201;28;70234;-38
2023/09/19 08:19:01;;;;;;;;;;;;;;;34.36;62.21;100559.41;5015573;28;66056;-38
2023/09/19 08:21:31;;;;;;;;;;;;;;;34.40;62.50;100555.09;5019528;28;69430;-37
2023/09/19 08:24:04;;;;;;;;;;;;;;;34.42;62.25;100547.50;5017958;28;65366;-37
2023/09/19 08:26:33;;;;;;;;;;;;;;;34.44;62.00;100556.25;5019223;28;70004;-38
2023/09/19 08:29:04;;;;;;;;;;;;;;;34.52;62.15;100563.13;5013477;28;66538;-36
2023/09/19 08:31:34;;;;;;;;;;;;;;;34.52;62.25;100561.25;5012445;28;70582;-37
2023/09/19 08:34:04;;;;;;;;;;;;;;;34.55;61.75;100568.91;5017418;28;66136;-37
2023/09/19 08:36:35;;;;;;;;;;;;;;;34.59;61.56;100564.63;5013165;28;70644;-45
2023/09/19 08:39:04;;;;;;;;;;;;;;;34.65;61.14;100563.63;5011508;28;65234;-36
2023/09/19 08:41:34;;;;;;;;;;;;;;;34.72;61.10;100562.63;5015071;28;70606;-38
2023/09/19 08:44:03;;;;;;;;;;;;;;;34.76;60.98;100552.84;5021652;28;66759;-37
2023/09/19 08:46:38;;;;;;;;;;;;;;;34.79;60.81;100552.34;5010519;28;70231;-37
2023/09/19 08:49:11;;;;;;;;;;;;;;;34.85;60.82;100546.72;5000943;28;66470;-36
2023/09/19 08:51:50;;;;;;;;;;;;;;;34.90;60.92;100546.75;5018758;28;70207;-37
2023/09/19 08:54:26;;;;;;;;;;;;;;;34.96;60.89;100528.53;5015721;28;67148;-37
2023/09/19 08:56:56;;;;;;;;;;;;;;;35.00;60.82;100537.84;5010044;28;71080;-36
2023/09/19 08:59:26;;;;;;;;;;;;;;;35.03;60.84;100548.25;5018263;28;66378;-37
2023/09/19 09:01:57;;;;;;;;;;;;;;;35.08;60.69;100555.69;5019418;28;70530;-37
2023/09/19 09:04:28;;;;;;;;;;;;;;;35.10;60.97;100561.69;5000931;28;65973;-37
2023/09/19 09:06:58;;;;;;;;;;;;;;;35.12;60.95;100563.09;5024491;28;70279;-38
2023/09/19 09:09:28;;;;;;;;;;;;;;;35.16;60.01;100562.56;5007885;28;66647;-37
2023/09/19 09:11:58;;;;;;;;;;;;;;;35.21;60.63;100559.91;5001100;28;69978;-36
2023/09/19 09:14:29;;;;;;;;;;;;;;;35.21;60.34;100566.16;5010892;28;66801;-37
2023/09/19 09:16:59;;;;;;;;;;;;;;;35.10;59.92;100554.34;5017628;28;71697;-37
2023/09/19 09:19:31;;;;;;;;;;;;;;;35.32;60.15;100567.09;5017519;28;66581;-36
2023/09/19 09:22:10;;;;;;;;;;;;;;;35.22;59.73;100578.75;5026840;28;69772;-38
2023/09/19 09:25:01;;;;;;;;;;;;;;;34.85;61.38;100570.38;5019643;28;65688;-39
2023/09/19 09:30:48;;;;;;;;;;;;;;;34.55;61.76;100559.91;5017594;28;66822;-37
2023/09/19 09:33:18;;;;;;;;;;;;;;;34.51;62.29;100551.41;5017988;28;70344;-38
2023/09/19 09:35:51;;;;;;;;;;;;;;;34.45;63.49;100547.00;5012581;28;66776;-42
2023/09/19 09:38:27;;;;;;;;;;;;;;;34.39;63.25;100567.06;5018476;28;70060;-39
2023/09/19 09:41:06;;;;;;;;;;;;;;;34.37;63.99;100582.81;5018640;28;65778;-38
2023/09/19 09:43:41;;;;;;;;;;;;;;;34.33;63.97;100622.53;5021072;28;70233;-39
2023/09/19 09:52:07;;;;;;;;;;;;;;;34.24;64.44;100638.44;4960317;28;66361;-38
2023/09/19 09:54:58;;;;;;;;;;;;;;;34.17;63.87;100616.84;5013879;28;70542;-39
2023/09/19 09:57:30;;;;;;;;;;;;;;;34.19;63.91;100641.94;5014157;28;66274;-38
2023/09/19 10:00:20;;;;;;;;;;;;;;;34.20;63.02;100651.75;5016193;28;70669;-38
2023/09/19 10:02:49;;;;;;;;;;;;;;;34.21;63.32;100687.94;5020621;28;65621;-38
2023/09/19 10:07:51;;;;;;;;;;;;;;;34.28;63.68;100671.47;5022416;28;67148;-38
2023/09/19 10:10:38;;;;;;;;;;;;;;;34.22;63.92;100679.56;5030405;28;69728;-39
2023/09/19 10:13:12;;;;;;;;;;;;;;;34.18;64.01;100686.53;5015465;28;66570;-38
2023/09/19 10:15:48;;;;;;;;;;;;;;;34.14;64.33;100682.69;5020219;28;70192;-39
2023/09/19 10:18:23;;;;;;;;;;;;;;;34.06;65.03;100685.00;5019260;28;66738;-38
2023/09/19 10:20:53;;;;;;;;;;;;;;;34.00;64.72;100684.88;5019437;28;70274;-39
2023/09/19 10:23:29;;;;;;;;;;;;;;;33.93;64.99;100729.63;5013750;28;66707;-39
2023/09/19 10:26:01;;;;;;;;;;;;;;;33.87;65.12;100752.38;5015207;28;70456;-38
2023/09/19 10:28:32;;;;;;;;;;;;;;;33.86;65.18;100767.06;5018151;28;66651;-39
2023/09/19 10:31:02;;;;;;;;;;;;;;;33.78;65.44;100818.06;5017479;28;70372;-38
2023/09/19 10:33:35;;;;;;;;;;;;;;;33.76;65.84;100844.69;5016663;28;66683;-39
2023/09/19 10:36:05;;;;;;;;;;;;;;;33.72;65.89;100804.63;5021410;28;70028;-42
2023/09/19 10:38:40;;;;;;;;;;;;;;;33.75;66.09;100775.03;5018865;28;67175;-38
2023/09/19 10:41:10;;;;;;;;;;;;;;;33.77;65.96;100753.84;5020243;28;69240;-38
2023/09/19 10:43:44;;;;;;;;;;;;;;;33.76;65.82;100740.47;5019195;28;65884;-46
2023/09/19 10:46:15;;;;;;;;;;;;;;;33.71;66.10;100708.59;5024772;28;70038;-38
2023/09/19 10:48:48;;;;;;;;;;;;;;;33.65;66.93;100723.13;5013326;28;65590;-40
2023/09/19 10:51:23;;;;;;;;;;;;;;;33.61;66.96;100722.00;5028524;28;69970;-39
2023/09/19 10:54:11;;;;;;;;;;;;;;;33.62;67.39;100718.19;5007932;28;65755;-39
2023/09/19 10:56:53;;;;;;;;;;;;;;;33.57;67.69;100727.09;5011768;28;70506;-38
2023/09/19 10:59:24;;;;;;;;;;;;;;;33.46;68.27;100719.78;5018461;28;66471;-41
2023/09/19 11:01:57;;;;;;;;;;;;;;;33.40;68.58;100719.91;5018953;28;70148;-38
2023/09/19 11:04:26;;;;;;;;;;;;;;;33.35;68.73;100713.31;4992465;28;66596;-40
2023/09/19 11:07:15;;;;;;;;;;;;;;;33.30;68.80;100693.34;5019585;28;70087;-39
2023/09/19 11:09:46;;;;;;;;;;;;;;;33.25;69.06;100687.81;5020209;28;67948;-38
2023/09/19 11:12:45;;;;;;;;;;;;;;;33.17;69.55;100694.44;5018899;28;70743;-39
2023/09/19 11:15:33;;;;;;;;;;;;;;;33.13;69.70;100694.09;5001781;28;66385;-38
2023/09/19 11:18:25;;;;;;;;;;;;;;;33.11;69.94;100689.97;5020420;28;69774;-38
2023/09/19 11:21:14;;;;;;;;;;;;;;;33.11;69.92;100673.66;5020625;28;66187;-41
2023/09/19 11:24:05;;;;;;;;;;;;;;;33.07;70.25;100667.03;5022188;28;69568;-40
2023/09/19 11:26:47;;;;;;;;;;;;;;;33.04;70.18;100678.41;5002411;28;66454;-40
2023/09/19 11:29:26;;;;;;;;;;;;;;;32.99;70.81;100689.97;5002810;28;69928;-39
2023/09/19 11:31:57;;;;;;;;;;;;;;;32.94;70.97;100712.41;5017732;28;66437;-39
2023/09/19 11:34:36;;;;;;;;;;;;;;;32.95;71.03;100729.53;5020249;28;69083;-39
2023/09/19 11:37:15;;;;;;;;;;;;;;;32.93;71.15;100732.50;5019263;28;66909;-38
2023/09/19 11:40:08;;;;;;;;;;;;;;;32.88;71.76;100762.28;4989012;28;70662;-38
2023/09/19 11:42:41;;;;;;;;;;;;;;;32.85;72.32;100795.34;5022252;28;66289;-39
2023/09/19 11:45:29;;;;;;;;;;;;;;;32.81;72.66;100837.63;5015023;28;70246;-39
2023/09/19 11:47:59;;;;;;;;;;;;;;;32.78;72.64;100859.81;4997461;28;66018;-39
2023/09/19 11:50:32;;;;;;;;;;;;;;;32.76;72.73;100894.53;4990761;28;70000;-38
2023/09/19 11:53:02;;;;;;;;;;;;;;;32.75;72.52;100917.34;5020119;28;65493;-39
2023/09/19 11:55:32;;;;;;;;;;;;;;;32.71;72.68;100924.31;5021492;28;70694;-39
2023/09/19 11:58:02;;;;;;;;;;;;;;;32.71;73.23;100913.44;5019332;28;66830;-38
2023/09/19 12:00:33;;;;;;;;;;;;;;;32.69;73.55;100910.13;5020585;28;70113;-38
2023/09/19 12:03:08;;;;;;;;;;;;;;;32.67;73.89;100914.94;5023930;28;67229;-41
2023/09/19 12:05:39;;;;;;;;;;;;;;;32.66;73.75;100932.31;5014500;28;69577;-40
2023/09/19 12:08:09;;;;;;;;;;;;;;;32.63;73.42;100938.22;5020172;28;65795;-40
2023/09/19 12:10:46;;;;;;;;;;;;;;;32.61;73.29;100943.03;5005550;28;70154;-40
2023/09/19 12:13:19;;;;;;;;;;;;;;;32.58;73.49;100940.78;5020033;28;65456;-38
2023/09/19 12:15:49;;;;;;;;;;;;;;;32.57;73.60;100933.69;5015877;28;70545;-38
2023/09/19 12:18:28;;;;;;;;;;;;;;;32.52;73.94;100925.44;5022133;28;66392;-38
2023/09/19 12:20:58;;;;;;;;;;;;;;;32.48;73.96;100919.59;5014070;28;70039;-40
2023/09/19 12:23:27;;;;;;;;;;;;;;;32.45;73.91;100923.56;5018225;28;67112;-38
2023/09/19 12:25:59;;;;;;;;;;;;;;;32.41;73.84;100922.38;5016124;28;69306;-39
2023/09/19 12:28:30;;;;;;;;;;;;;;;32.38;73.87;100931.00;5007457;28;65427;-40
2023/09/19 12:31:07;;;;;;;;;;;;;;;32.37;74.27;100933.94;5018567;28;70662;-38
2023/09/19 12:33:37;;;;;;;;;;;;;;;32.36;74.69;100935.81;5018920;28;66058;-41
2023/09/19 12:36:29;;;;;;;;;;;;;;;32.34;74.76;100934.41;5022955;28;69260;-38
2023/09/19 12:39:08;;;;;;;;;;;;;;;32.34;74.60;100945.25;5015461;28;66729;-46
2023/09/19 12:41:38;;;;;;;;;;;;;;;32.31;74.95;100957.41;5019800;28;70390;-41
2023/09/19 12:44:12;;;;;;;;;;;;;;;32.30;74.84;100977.47;5020994;28;66459;-39
2023/09/19 12:46:43;;;;;;;;;;;;;;;32.32;74.85;100986.22;5015457;28;70228;-38
2023/09/19 12:49:19;;;;;;;;;;;;;;;32.29;75.09;100997.53;5016045;28;66042;-39
2023/09/19 12:51:49;;;;;;;;;;;;;;;32.29;75.29;101005.69;5009963;28;70319;-39
2023/09/19 12:54:19;;;;;;;;;;;;;;;32.28;75.75;101007.53;5013407;28;66083;-38
2023/09/19 12:56:50;;;;;;;;;;;;;;;32.30;76.04;100993.75;5019157;28;70444;-37
2023/09/19 12:59:50;;;;;;;;;;;;;;;32.28;75.89;100980.38;5020808;28;66547;-38
2023/09/19 13:02:28;;;;;;;;;;;;;;;32.25;76.14;100974.59;5015335;28;70161;-39
2023/09/19 13:05:33;;;;;;;;;;;;;;;32.25;75.74;100963.75;5005907;28;66772;-39
2023/09/19 13:08:18;;;;;;;;;;;;;;;32.23;75.64;100955.84;5018208;28;70387;-38
2023/09/19 13:11:09;;;;;;;;;;;;;;;32.22;75.66;100953.34;5018888;28;67158;-38
2023/09/19 13:13:53;;;;;;;;;;;;;;;32.22;75.83;100956.06;5012796;28;69482;-38
2023/09/19 13:16:25;;;;;;;;;;;;;;;32.23;75.55;100949.56;5021978;28;65918;-38